Time;durP1;ratioP1;P1;durP2;ratioP2;P2;SDS_P1;SDS_P2;PMS_P1;PMS_P2;Temp;Humidity;BMP_temperature;BMP_pressure;BME280_temperature;BME280_humidity;BME280_pressure;Samples;Min_cycle;Max_cycle;Signal;HPM_P1;HPM_P2
2022/05/14 00:01:03;;;;;;;13.98;5.63;;;;;;;10.02;80.83;102072.31;4841072;29;20124;-82
2022/05/14 00:03:33;;;;;;;16.52;6.10;;;;;;;10.05;80.98;102067.03;4861644;29;20478;-81
2022/05/14 00:06:01;;;;;;;14.32;5.45;;;;;;;10.05;80.81;102067.03;4861806;29;20038;-81
2022/05/14 00:08:28;;;;;;;13.20;5.38;;;;;;;9.85;80.08;102020.56;4861658;29;20562;-81
2022/05/14 00:13:39;;;;;;;16.02;5.30;;;;;;;10.15;80.03;102057.19;4861841;29;20084;-81
2022/05/14 00:16:06;;;;;;;15.10;5.45;;;;;;;10.02;79.38;102036.19;4861557;29;20026;-82
2022/05/14 00:18:35;;;;;;;12.25;4.97;;;;;;;10.20;79.07;102064.72;4861605;29;20033;-82
2022/05/14 00:21:04;;;;;;;12.40;5.90;;;;;;;9.88;78.82;102025.59;4861575;29;20056;-81
2022/05/14 00:23:32;;;;;;;13.95;4.85;;;;;;;10.20;78.26;102065.56;4861373;29;20026;-81
2022/05/14 00:26:03;;;;;;;20.40;6.00;;;;;;;10.22;77.69;102065.53;4861434;29;20029;-82
2022/05/14 00:28:29;;;;;;;12.13;4.80;;;;;;;10.20;77.83;102064.72;4815726;29;20041;-82
2022/05/14 00:30:57;;;;;;;14.73;5.15;;;;;;;9.18;77.13;101899.53;4861618;29;20062;-82
2022/05/14 00:33:28;;;;;;;12.70;4.40;;;;;;;8.87;76.95;101841.50;4861372;29;20364;-81
2022/05/14 00:36:12;;;;;;;9.10;4.63;;;;;;;8.90;76.83;101854.25;4861517;29;20025;-82
2022/05/14 00:38:38;;;;;;;14.20;4.53;;;;;;;10.19;76.77;102053.56;4844047;29;20070;-81
2022/05/14 00:41:06;;;;;;;12.10;5.10;;;;;;;9.82;76.35;101986.31;4860902;29;20033;-82
2022/05/14 00:43:34;;;;;;;9.60;4.18;;;;;;;10.19;75.96;102056.13;4861196;29;20060;-81
2022/05/14 00:46:40;;;;;;;13.82;5.03;;;;;;;9.04;76.19;101882.00;4860501;29;20025;-82
2022/05/14 00:49:23;;;;;;;14.20;4.97;;;;;;;9.53;76.38;101975.44;4768227;30;20079;-81
2022/05/14 00:51:49;;;;;;;12.05;5.13;;;;;;;9.59;76.29;101987.25;4768242;30;20500;-81
2022/05/14 00:54:22;;;;;;;15.52;4.70;;;;;;;9.88;76.36;102040.25;4768041;30;20135;-82
2022/05/14 00:56:52;;;;;;;10.30;4.38;;;;;;;9.91;76.55;102051.25;4768201;30;20046;-81
2022/05/14 00:59:22;;;;;;;13.85;5.05;;;;;;;9.87;76.62;102051.47;4768080;30;20035;-82
2022/05/14 01:01:49;;;;;;;12.80;4.68;;;;;;;9.82;76.56;102043.06;4767382;30;20120;-81
2022/05/14 01:04:16;;;;;;;9.43;4.90;;;;;;;9.79;77.03;102044.03;4767986;30;20031;-81
2022/05/14 01:07:06;;;;;;;12.50;4.45;;;;;;;9.26;76.83;101961.91;4768044;30;20134;-82
2022/05/14 01:09:34;;;;;;;14.60;5.30;;;;;;;9.69;76.71;102045.28;4715156;30;20064;-81
2022/05/14 01:11:59;;;;;;;10.85;4.28;;;;;;;9.45;76.50;102014.44;4714987;30;20041;-81
2022/05/14 01:14:24;;;;;;;13.70;4.25;;;;;;;9.33;76.43;101988.28;4715129;30;20514;-81
2022/05/14 01:16:51;;;;;;;10.48;4.05;;;;;;;9.68;76.54;102047.03;4714423;30;20048;-81
2022/05/14 01:19:17;;;;;;;8.88;4.40;;;;;;;9.50;76.35;102016.81;4715152;30;20107;-81
2022/05/14 01:22:03;;;;;;;12.95;4.75;;;;;;;9.63;76.50;102043.78;4715059;30;20577;-82
2022/05/14 01:27:31;;;;;;;9.48;4.00;;;;;;;9.34;76.25;102001.13;4767816;30;20043;-81
2022/05/14 01:29:59;;;;;;;9.93;4.15;;;;;;;9.58;76.38;102045.72;4752966;30;20546;-81
2022/05/14 01:32:27;;;;;;;10.95;3.97;;;;;;;9.58;76.31;102044.88;4753051;30;20040;-81
2022/05/14 01:34:52;;;;;;;13.13;3.97;;;;;;;9.53;76.67;102047.63;4767846;30;20035;-81
2022/05/14 01:37:24;;;;;;;9.82;4.22;;;;;;;9.56;76.34;102044.13;4752605;30;20044;-81
2022/05/14 01:39:49;;;;;;;;;;;;;;;9.54;75.99;102049.34;4767812;30;20062;-82
2022/05/14 01:42:14;;;;;;;9.55;4.30;;;;;;;9.38;76.43;102028.47;4767491;30;19918;-82
2022/05/14 01:44:42;;;;;;;10.25;3.92;;;;;;;9.49;76.85;102053.81;4752886;30;20052;-82
2022/05/14 01:47:07;;;;;;;12.68;4.88;;;;;;;9.47;76.57;102048.72;4823045;29;20095;-82
2022/05/14 01:49:33;;;;;;;14.27;4.55;;;;;;;9.25;76.35;102021.25;4841921;29;20424;-82
2022/05/14 01:51:58;;;;;;;9.10;4.40;;;;;;;9.39;76.75;102058.50;4841978;29;20559;-82
2022/05/14 01:54:23;;;;;;;13.82;4.47;;;;;;;9.35;77.02;102059.53;4841774;29;20487;-82
2022/05/14 01:56:48;;;;;;;12.77;4.70;;;;;;;8.98;77.35;102005.94;4841526;29;20483;-82
2022/05/14 01:59:14;;;;;;;11.63;5.07;;;;;;;8.95;77.53;102011.22;4840562;29;20090;-82
2022/05/14 02:01:39;;;;;;;12.82;4.80;;;;;;;8.97;77.67;102021.47;4855298;29;20046;-82
2022/05/14 02:04:08;;;;;;;12.27;5.07;;;;;;;9.18;78.08;102065.31;4860204;29;20030;-82
2022/05/14 02:06:35;;;;;;;14.32;5.53;;;;;;;8.97;78.05;102029.19;4860215;29;20074;-82
2022/05/14 02:09:01;;;;;;;13.77;4.85;;;;;;;9.16;78.36;102063.69;4860260;29;20379;-82
2022/05/14 02:11:27;;;;;;;12.38;5.20;;;;;;;8.95;78.32;102031.81;4859849;29;20037;-82
2022/05/14 02:13:54;;;;;;;15.65;5.30;;;;;;;8.98;78.54;102036.03;4860890;29;20498;-82
2022/05/14 02:16:20;;;;;;;9.32;5.03;;;;;;;8.68;78.71;101999.34;4863689;29;20033;-82
2022/05/14 02:18:45;;;;;;;12.27;5.50;;;;;;;9.04;79.00;102062.38;4863656;29;20037;-82
2022/05/14 02:21:13;;;;;;;14.80;5.32;;;;;;;9.00;79.14;102062.56;4863442;29;20090;-82
2022/05/14 02:23:39;;;;;;;12.13;5.50;;;;;;;8.97;79.39;102060.09;4863704;29;20025;-81
2022/05/14 02:26:14;;;;;;;12.07;5.80;;;;;;;8.95;79.60;102062.75;4862569;29;20045;-82
2022/05/14 02:28:42;;;;;;;13.27;5.38;;;;;;;8.67;79.99;102023.41;4847163;29;20022;-82
2022/05/14 02:31:07;;;;;;;13.63;5.78;;;;;;;8.54;79.94;101992.94;4863615;29;20129;-82
2022/05/14 02:33:35;;;;;;;14.85;6.55;;;;;;;8.97;80.04;102071.25;4862462;29;20530;-81
2022/05/14 02:36:01;;;;;;;12.13;5.95;;;;;;;8.99;80.08;102063.47;4863455;29;20470;-81
2022/05/14 02:38:30;;;;;;;12.48;5.85;;;;;;;8.60;79.86;102003.03;4863279;29;20064;-82
2022/05/14 02:40:57;;;;;;;12.88;6.90;;;;;;;8.99;80.07;102066.88;4846616;29;20037;-82
2022/05/14 02:43:25;;;;;;;13.15;6.32;;;;;;;8.83;80.04;102045.97;4863592;29;20562;-81
2022/05/14 02:45:50;;;;;;;14.52;6.03;;;;;;;8.94;80.12;102071.34;4863127;29;20081;-81
2022/05/14 02:48:16;;;;;;;11.85;5.43;;;;;;;8.93;80.33;102072.25;4863199;29;20033;-82
2022/05/14 02:50:41;;;;;;;12.88;6.38;;;;;;;8.89;80.49;102065.53;4863142;29;20026;-81
2022/05/14 02:53:08;;;;;;;15.02;6.13;;;;;;;8.84;80.60;102068.25;4862910;29;20037;-81
2022/05/14 02:55:34;;;;;;;13.63;6.30;;;;;;;8.68;80.71;102048.28;4862965;29;20029;-82
2022/05/14 02:58:02;;;;;;;14.82;6.32;;;;;;;8.77;81.09;102066.81;4846048;29;20037;-82
2022/05/14 03:00:31;;;;;;;15.05;7.10;;;;;;;8.33;80.92;102006.53;4863065;29;20052;-82
2022/05/14 03:02:56;;;;;;;14.23;6.00;;;;;;;8.40;81.15;102022.66;4862930;29;20070;-82
2022/05/14 03:05:23;;;;;;;13.63;6.55;;;;;;;8.36;81.51;102027.06;4862825;29;20033;-82
2022/05/14 03:07:54;;;;;;;14.35;6.32;;;;;;;8.63;81.53;102075.00;4862871;29;20037;-82
2022/05/14 03:10:36;;;;;;;15.98;7.05;;;;;;;7.80;81.28;101931.22;4862537;29;20037;-82
2022/05/14 03:13:23;;;;;;;16.90;6.97;;;;;;;8.61;81.28;102071.66;4862879;29;20112;-82
2022/05/14 03:15:54;;;;;;;13.20;6.65;;;;;;;8.11;81.96;101997.88;4862877;29;20029;-83
2022/05/14 03:18:26;;;;;;;13.23;6.25;;;;;;;7.24;81.72;101854.25;4862522;29;20030;-82
2022/05/14 03:20:51;;;;;;;17.65;6.97;;;;;;;8.52;82.12;102068.56;4862383;29;20444;-82
2022/05/14 03:23:16;;;;;;;15.65;6.25;;;;;;;8.50;82.18;102070.34;4862369;29;20113;-82
2022/05/14 03:25:44;;;;;;;13.32;6.90;;;;;;;8.47;82.20;102068.72;4862083;29;20120;-81
2022/05/14 03:28:12;;;;;;;15.13;6.43;;;;;;;8.19;82.08;102024.19;4862336;29;20033;-82
2022/05/14 03:30:38;;;;;;;17.67;7.00;;;;;;;8.34;82.45;102054.53;4862540;29;20033;-82
2022/05/14 03:33:03;;;;;;;14.68;6.55;;;;;;;8.35;82.30;102056.25;4862445;29;20033;-82
2022/05/14 03:35:29;;;;;;;16.05;6.72;;;;;;;8.01;82.28;102000.75;4862142;29;20498;-82
2022/05/14 03:37:54;;;;;;;16.17;6.75;;;;;;;8.41;82.37;102068.94;4862555;29;20033;-82
2022/05/14 03:40:19;;;;;;;13.07;6.80;;;;;;;8.38;82.20;102063.88;4862225;29;20026;-81
2022/05/14 03:42:45;;;;;;;15.55;6.88;;;;;;;8.30;82.25;102047.84;4862011;29;20044;-81
2022/05/14 03:45:10;;;;;;;15.40;7.30;;;;;;;8.29;82.55;102057.28;4862258;29;20486;-81
2022/05/14 03:47:36;;;;;;;14.65;7.53;;;;;;;8.11;82.26;102015.91;4862245;29;20082;-81
2022/05/14 03:50:04;;;;;;;14.60;7.78;;;;;;;8.30;82.59;102063.28;4861950;29;20648;-82
2022/05/14 03:52:30;;;;;;;18.48;6.97;;;;;;;8.38;82.68;102075.91;4862353;29;20514;-82
2022/05/14 03:54:55;;;;;;;18.17;6.50;;;;;;;8.34;82.45;102065.72;4860386;29;20120;-82
2022/05/14 03:57:20;;;;;;;15.82;6.57;;;;;;;7.93;82.52;102000.19;4861834;29;20033;-81
2022/05/14 03:59:46;;;;;;;18.50;6.97;;;;;;;8.28;82.47;102047.88;4861934;29;20022;-81
2022/05/14 04:02:12;;;;;;;12.25;7.03;;;;;;;8.04;82.38;102021.22;4861456;29;20112;-81
2022/05/14 04:04:37;;;;;;;14.88;6.50;;;;;;;8.34;82.45;102065.72;4861689;29;20378;-82
2022/05/14 04:07:03;;;;;;;15.23;7.00;;;;;;;7.82;82.35;101978.28;4844666;29;20514;-81
2022/05/14 04:09:28;;;;;;;12.85;6.45;;;;;;;8.15;82.39;102027.75;4862091;29;20037;-81
2022/05/14 04:11:53;;;;;;;14.30;6.47;;;;;;;8.10;82.26;102038.22;4861475;29;20029;-81
2022/05/14 04:14:20;;;;;;;11.43;6.10;;;;;;;8.34;82.32;102073.44;4860965;29;20037;-82
2022/05/14 04:16:49;;;;;;;16.65;6.78;;;;;;;7.97;82.28;102000.94;4861472;29;20029;-82
2022/05/14 04:19:14;;;;;;;14.45;6.22;;;;;;;8.13;82.19;102027.81;4861570;29;20104;-82
2022/05/14 04:21:40;;;;;;;16.35;6.68;;;;;;;8.22;82.00;102037.78;4861031;29;20177;-82
2022/05/14 04:24:08;;;;;;;14.45;6.47;;;;;;;8.38;81.70;102055.34;4861640;29;20483;-82
2022/05/14 04:26:34;;;;;;;16.30;5.65;;;;;;;8.53;81.66;102078.78;4861262;29;20041;-82
2022/05/14 04:28:59;;;;;;;15.80;6.40;;;;;;;8.59;81.21;102072.59;4844828;29;20025;-82
2022/05/14 04:31:28;;;;;;;13.55;6.20;;;;;;;8.02;81.39;101976.72;4861403;29;20108;-82
2022/05/14 04:34:08;;;;;;;12.07;6.32;;;;;;;7.66;81.15;101922.22;4861421;29;20478;-81
2022/05/14 04:36:34;;;;;;;12.13;6.20;;;;;;;8.26;81.16;102015.38;4860823;29;20033;-82
2022/05/14 04:42:28;;;;;;;14.90;6.57;;;;;;;7.48;80.68;101864.56;4803559;29;20121;-82
2022/05/14 04:44:53;;;;;;;11.23;5.90;;;;;;;8.01;80.55;101944.16;4804159;29;20130;-82
2022/05/14 04:47:19;;;;;;;12.13;6.13;;;;;;;8.57;80.65;102020.34;4789220;29;20059;-82
2022/05/14 04:50:08;;;;;;;16.95;6.72;;;;;;;8.53;80.47;102021.31;4804279;29;20034;-82
2022/05/14 04:52:33;;;;;;;13.50;6.57;;;;;;;7.78;79.81;101879.84;4777095;29;20054;-82
2022/05/14 04:55:11;;;;;;;14.00;6.03;;;;;;;8.37;79.45;101979.84;4804167;29;20031;-82
2022/05/14 04:58:08;;;;;;;15.65;6.95;;;;;;;8.75;79.42;102005.94;4803909;29;20144;-82
2022/05/14 05:00:35;;;;;;;15.20;6.70;;;;;;;9.35;78.49;102050.94;4803682;29;20055;-82
2022/05/14 05:05:46;;;;;;;15.45;7.05;;;;;;;11.49;72.06;102090.00;4803909;29;20526;-82
2022/05/14 05:08:12;;;;;;;13.55;6.97;;;;;;;12.53;68.11;102092.75;4803962;29;20034;-82
2022/05/14 05:10:38;;;;;;;13.05;5.97;;;;;;;13.28;64.86;102094.03;4803827;29;20054;-82
2022/05/14 05:13:03;;;;;;;13.88;6.10;;;;;;;13.85;62.60;102080.47;4803581;29;20060;-82
2022/05/14 05:15:29;;;;;;;13.55;5.97;;;;;;;14.41;60.20;102079.81;4803741;29;20072;-83
2022/05/14 05:17:55;;;;;;;16.23;6.43;;;;;;;14.63;59.17;102081.97;4803809;29;20086;-83
2022/05/14 05:20:21;;;;;;;13.18;6.05;;;;;;;14.95;57.49;102072.25;4857547;29;20042;-83
2022/05/14 05:22:48;;;;;;;15.10;6.57;;;;;;;15.37;56.72;102096.53;4860656;29;20550;-82
2022/05/14 05:25:14;;;;;;;12.77;7.05;;;;;;;15.86;55.27;102103.84;4860684;29;20029;-83
2022/05/14 05:27:40;;;;;;;14.30;6.15;;;;;;;16.08;54.74;102103.25;4860224;29;20041;-83
2022/05/14 05:30:06;;;;;;;15.13;6.72;;;;;;;16.34;54.08;102095.41;4860668;29;20029;-83
2022/05/14 05:32:35;;;;;;;14.73;7.22;;;;;;;16.59;53.14;102104.97;4843466;29;20058;-82
2022/05/14 05:35:00;;;;;;;11.85;6.35;;;;;;;16.79;52.62;102106.25;4860526;29;20033;-83
2022/05/14 05:37:28;;;;;;;16.23;7.72;;;;;;;17.18;51.46;102099.19;4860437;29;20026;-83
2022/05/14 05:39:54;;;;;;;19.77;7.47;;;;;;;17.58;50.85;102109.41;4860680;29;20486;-82
2022/05/14 05:45:45;;;;;;;15.50;7.60;;;;;;;18.43;49.43;102107.50;4785385;29;20563;-82
2022/05/14 05:48:22;;;;;;;13.98;7.72;;;;;;;18.68;49.06;102054.16;4785414;29;20039;-83
2022/05/14 05:51:02;;;;;;;13.60;6.55;;;;;;;18.71;47.53;102002.44;4788946;29;20039;-83
2022/05/14 05:58:55;;;;;;;15.32;7.60;;;;;;;20.10;44.92;102090.69;4789613;29;20058;-84
2022/05/14 06:01:21;;;;;;;16.13;7.68;;;;;;;19.75;44.74;102023.66;4788959;30;20047;-83
2022/05/14 06:03:48;;;;;;;13.75;8.00;;;;;;;20.66;44.03;102124.50;4788923;30;20512;-81
2022/05/14 06:06:14;;;;;;;17.70;8.20;;;;;;;20.31;43.20;102062.66;4789026;30;20059;-83
2022/05/14 06:08:39;;;;;;;15.52;8.18;;;;;;;20.54;44.29;102130.75;4788604;29;20093;-83
2022/05/14 06:11:05;;;;;;;19.20;7.80;;;;;;;20.33;44.08;102079.09;4788787;30;20109;-84
2022/05/14 06:13:30;;;;;;;16.40;8.10;;;;;;;20.80;43.57;102102.28;4788642;29;20039;-83
2022/05/14 06:15:56;;;;;;;16.58;8.45;;;;;;;21.26;42.80;102122.81;4788787;30;20571;-84
2022/05/14 06:18:21;;;;;;;16.50;8.18;;;;;;;21.36;42.42;102096.53;4788647;30;20035;-84
2022/05/14 06:20:46;;;;;;;17.33;8.18;;;;;;;21.92;41.90;102130.88;4788587;30;20168;-85
2022/05/14 06:23:12;;;;;;;13.05;7.75;;;;;;;22.25;41.19;102119.13;4856328;29;20486;-83
2022/05/14 06:25:37;;;;;;;21.33;8.57;;;;;;;22.83;39.91;102124.22;4863366;29;20036;-82
2022/05/14 06:28:03;;;;;;;17.75;7.68;;;;;;;22.99;39.75;102120.13;4863590;29;20131;-85
2022/05/14 06:30:30;;;;;;;18.13;8.43;;;;;;;23.02;39.04;102104.06;4863364;29;20370;-84
2022/05/14 06:33:01;;;;;;;18.88;8.15;;;;;;;23.41;39.70;102131.00;4863309;29;20110;-84
2022/05/14 06:35:26;;;;;;;;;;;;;;;24.39;40.71;102142.47;4846730;29;20037;-83
2022/05/14 06:37:52;;;;;;;19.47;8.27;;;;;;;24.08;37.99;102140.22;4846648;29;20284;-83
2022/05/14 06:40:17;;;;;;;13.80;7.53;;;;;;;23.86;38.24;102140.69;4863062;29;20282;-82
2022/05/14 06:42:42;;;;;;;18.60;8.27;;;;;;;23.28;38.82;102099.72;4863230;29;20135;-81
2022/05/14 06:45:08;;;;;;;20.25;8.45;;;;;;;23.53;38.93;102137.72;4862970;29;20071;-82
2022/05/14 06:47:34;;;;;;;20.00;8.60;;;;;;;23.78;39.03;102137.97;4863270;29;20029;-82
2022/05/14 06:50:03;;;;;;;17.33;8.52;;;;;;;23.90;38.51;102142.91;4863220;29;20034;-79
2022/05/14 06:52:28;;;;;;;20.23;8.43;;;;;;;24.30;37.72;102149.47;4846103;29;20478;-82
2022/05/14 06:54:55;;;;;;;21.75;8.45;;;;;;;24.16;38.19;102145.56;4862841;29;20085;-81
2022/05/14 06:57:21;;;;;;;19.73;8.45;;;;;;;24.29;37.59;102140.72;4862803;29;20470;-82
2022/05/14 06:59:46;;;;;;;20.20;8.98;;;;;;;24.69;36.89;102135.88;4862278;29;20042;-80
2022/05/14 07:02:13;;;;;;;19.45;9.05;;;;;;;24.70;37.12;102100.53;4862732;29;20057;-81
2022/05/14 07:07:25;;;;;;;20.77;9.50;;;;;;;24.60;37.45;102135.81;4849097;29;20398;-83
2022/05/14 07:09:52;;;;;;;17.95;9.43;;;;;;;24.47;36.30;102076.47;4862844;29;20029;-83
2022/05/14 07:12:19;;;;;;;16.40;8.70;;;;;;;25.12;36.72;102119.06;4862946;29;20053;-81
2022/05/14 07:14:45;;;;;;;17.10;8.60;;;;;;;25.00;36.06;102101.81;4862577;29;20030;-82
2022/05/14 07:17:11;;;;;;;19.65;8.85;;;;;;;24.96;36.15;102077.50;4862160;29;20056;-85
2022/05/14 07:19:39;;;;;;;18.95;9.32;;;;;;;25.42;36.29;102139.63;4862347;29;20499;-84
2022/05/14 07:22:06;;;;;;;16.05;8.00;;;;;;;25.62;35.56;102128.75;4853437;29;20069;-83
2022/05/14 07:24:32;;;;;;;18.30;9.35;;;;;;;25.34;35.81;102144.91;4844972;29;20030;-84
2022/05/14 07:27:01;;;;;;;18.88;9.80;;;;;;;23.71;38.59;102114.88;4844410;29;20030;-83
2022/05/14 07:29:27;;;;;;;17.63;9.88;;;;;;;22.00;42.80;102143.34;4843356;29;20045;-83
2022/05/14 07:31:55;;;;;;;17.95;9.95;;;;;;;20.81;45.12;102138.91;4844056;29;20120;-84
2022/05/14 07:34:22;;;;;;;23.80;10.35;;;;;;;20.01;48.24;102144.75;4827333;29;20109;-82
2022/05/14 07:37:09;;;;;;;21.17;9.80;;;;;;;19.16;49.88;102146.34;4843838;29;20042;-81
2022/05/14 07:39:42;;;;;;;23.20;10.38;;;;;;;18.62;51.77;102149.63;4843900;29;20459;-82
2022/05/14 07:42:15;;;;;;;20.67;10.75;;;;;;;18.15;53.75;102147.97;4843765;29;20032;-82
2022/05/14 07:44:44;;;;;;;22.50;11.52;;;;;;;18.07;53.99;102156.34;4843746;29;20183;-82
2022/05/14 07:47:12;;;;;;;22.83;11.43;;;;;;;17.64;55.73;102127.28;4843672;29;20093;-81
2022/05/14 07:49:38;;;;;;;21.67;11.07;;;;;;;17.77;56.00;102154.19;4843445;29;20340;-82
2022/05/14 07:52:04;;;;;;;28.35;12.13;;;;;;;17.73;55.96;102151.00;4843571;29;20026;-82
2022/05/14 07:54:30;;;;;;;26.02;11.52;;;;;;;17.22;57.13;102092.00;4827123;29;20033;-83
2022/05/14 07:56:55;;;;;;;22.98;11.48;;;;;;;17.62;57.10;102163.97;4843593;29;20025;-82
2022/05/14 07:59:21;;;;;;;28.52;12.43;;;;;;;17.54;57.74;102161.06;4843349;29;20025;-80
2022/05/14 08:01:47;;;;;;;22.48;12.00;;;;;;;17.16;58.56;102101.09;4843137;29;20110;-79
2022/05/14 08:04:13;;;;;;;25.98;11.48;;;;;;;17.18;57.47;102104.44;4843214;29;20490;-81
2022/05/14 08:06:58;;;;;;;25.38;12.50;;;;;;;17.09;59.65;102090.25;4839907;29;20034;-81
2022/05/14 08:09:27;;;;;;;25.30;12.45;;;;;;;16.56;58.47;101990.47;4843329;29;20432;-81
2022/05/14 08:12:01;;;;;;;25.92;11.27;;;;;;;16.75;57.66;101989.19;4821930;29;20038;-82
2022/05/14 08:15:07;;;;;;;26.63;11.30;;;;;;;17.88;56.83;102164.72;4822791;29;20054;-81
2022/05/14 08:17:41;;;;;;;24.90;11.13;;;;;;;16.66;56.75;101979.38;4822992;29;20034;-82
2022/05/14 08:20:20;;;;;;;20.15;11.80;;;;;;;17.35;58.57;102088.41;4822867;29;20179;-82
2022/05/14 08:25:30;;;;;;;21.75;11.35;;;;;;;17.46;57.14;102137.25;4822961;29;20145;-80
2022/05/14 08:27:56;;;;;;;21.05;11.45;;;;;;;17.64;58.72;102150.78;4822693;29;20073;-79
2022/05/14 08:30:27;;;;;;;22.67;12.80;;;;;;;17.56;58.39;102134.81;4822624;29;20068;-82
2022/05/14 08:32:53;;;;;;;24.42;12.10;;;;;;;17.77;57.42;102155.03;4822628;29;20131;-82
2022/05/14 08:35:20;;;;;;;23.48;12.70;;;;;;;17.49;57.56;102116.97;4807027;29;20087;-82
2022/05/14 08:37:47;;;;;;;22.63;12.15;;;;;;;17.72;57.56;102161.56;4807398;29;20448;-82
2022/05/14 08:40:30;;;;;;;25.35;11.98;;;;;;;17.85;59.10;102166.72;4822478;29;20034;-81
2022/05/14 08:43:03;;;;;;;28.05;12.57;;;;;;;18.02;59.38;102164.56;4832963;29;20084;-82
2022/05/14 08:45:36;;;;;;;25.27;12.40;;;;;;;18.09;58.73;102162.31;4842246;29;20026;-84
2022/05/14 08:48:13;;;;;;;22.63;12.35;;;;;;;18.05;57.41;102153.88;4842776;29;20116;-77
2022/05/14 08:50:39;;;;;;;27.13;12.15;;;;;;;17.99;57.84;102153.47;4842438;29;20390;-73
2022/05/14 08:53:16;;;;;;;27.73;12.55;;;;;;;18.03;58.00;102158.38;4842828;29;20068;-75
2022/05/14 08:55:59;;;;;;;25.67;12.82;;;;;;;18.14;56.85;102162.81;4842626;29;20082;-74
2022/05/14 08:58:31;;;;;;;23.60;12.00;;;;;;;18.23;59.11;102158.69;4842382;29;20026;-74
2022/05/14 09:00:59;;;;;;;22.90;11.38;;;;;;;18.37;57.86;102152.41;4826002;29;20450;-73
2022/05/14 09:03:25;;;;;;;25.48;10.75;;;;;;;18.54;56.60;102152.81;4842186;29;20034;-77
2022/05/14 09:05:55;;;;;;;26.83;12.10;;;;;;;18.65;57.39;102138.13;4842412;29;20091;-74
2022/05/14 09:08:21;;;;;;;22.27;11.30;;;;;;;18.65;55.97;102133.72;4842429;29;20053;-76
2022/05/14 09:10:59;;;;;;;24.88;12.05;;;;;;;18.73;56.48;102130.53;4842318;29;20080;-75
2022/05/14 09:13:25;;;;;;;24.23;12.15;;;;;;;18.74;55.50;102156.56;4842096;29;20045;-77
2022/05/14 09:15:55;;;;;;;25.63;12.45;;;;;;;18.83;56.58;102152.41;4841961;29;20030;-75
2022/05/14 09:18:30;;;;;;;19.27;10.23;;;;;;;19.07;54.78;102153.13;4825557;29;20410;-76
2022/05/14 09:21:08;;;;;;;25.90;11.05;;;;;;;19.30;54.48;102159.19;4842088;29;20488;-78
2022/05/14 09:23:44;;;;;;;26.05;11.20;;;;;;;19.36;56.32;102161.31;4842005;29;20034;-77
2022/05/14 09:26:37;;;;;;;21.13;10.90;;;;;;;19.47;55.68;102150.84;4841935;29;20068;-76
2022/05/14 09:29:22;;;;;;;26.45;11.23;;;;;;;19.42;54.67;102144.28;4842198;29;20033;-77
2022/05/14 09:32:00;;;;;;;22.52;10.88;;;;;;;19.56;54.36;102146.66;4841823;29;20037;-76
2022/05/14 09:34:27;;;;;;;20.95;10.32;;;;;;;19.66;53.26;102146.75;4841978;29;20038;-77
2022/05/14 09:36:52;;;;;;;24.52;10.70;;;;;;;19.95;53.73;102137.38;4842221;29;20033;-76
2022/05/14 09:39:22;;;;;;;24.10;11.18;;;;;;;20.11;51.34;102139.56;4825766;29;20378;-76
2022/05/14 09:41:55;;;;;;;19.02;10.23;;;;;;;20.50;52.12;102145.94;4841809;29;20026;-76
2022/05/14 09:44:50;;;;;;;20.30;9.90;;;;;;;20.65;52.07;102145.59;4841981;29;20041;-76
2022/05/14 09:47:30;;;;;;;23.17;10.68;;;;;;;20.82;51.52;102145.81;4841638;29;20387;-76
2022/05/14 09:50:02;;;;;;;19.25;10.73;;;;;;;21.02;51.86;102145.91;4841930;29;20109;-78
2022/05/14 09:52:33;;;;;;;20.27;11.35;;;;;;;21.13;49.21;102148.44;4841858;29;20026;-76
2022/05/14 09:55:04;;;;;;;27.38;10.93;;;;;;;21.03;49.19;102147.56;4841678;29;20078;-76
2022/05/14 09:57:49;;;;;;;22.27;11.00;;;;;;;21.23;51.08;102151.91;4841742;29;20038;-76
2022/05/14 10:00:26;;;;;;;22.60;10.55;;;;;;;21.13;49.15;102154.50;4841712;29;20331;-76
2022/05/14 10:02:56;;;;;;;17.55;9.07;;;;;;;20.94;48.86;102128.19;4841597;29;20511;-75
2022/05/14 10:05:49;;;;;;;24.10;11.68;;;;;;;20.75;49.22;102144.72;4841637;29;20037;-79
2022/05/14 10:08:52;;;;;;;22.90;10.85;;;;;;;20.65;50.13;102140.34;4841458;29;20026;-74
2022/05/14 10:11:30;;;;;;;23.17;11.25;;;;;;;20.84;50.90;102154.44;4841699;29;20034;-79
2022/05/14 10:14:20;;;;;;;24.77;11.68;;;;;;;20.95;49.30;102150.03;4841773;29;20026;-78
2022/05/14 10:16:52;;;;;;;16.73;7.53;;;;;;;21.12;49.49;102150.22;4841452;29;20056;-76
2022/05/14 10:19:37;;;;;;;17.33;9.00;;;;;;;21.05;49.01;102137.78;4841577;29;20038;-76
2022/05/14 10:28:27;;;;;;;15.32;7.35;;;;;;;21.13;48.42;102148.44;4841838;29;20045;-76
2022/05/14 10:31:08;;;;;;;21.67;10.02;;;;;;;21.01;47.79;102134.56;4824841;29;20042;-76
2022/05/14 10:33:33;;;;;;;21.50;9.60;;;;;;;20.95;48.40;102134.28;4841856;29;20042;-76
2022/05/14 10:36:19;;;;;;;20.02;7.72;;;;;;;21.10;48.89;102143.44;4843468;29;20463;-75
2022/05/14 10:39:09;;;;;;;20.10;9.13;;;;;;;20.92;48.07;102127.47;4844849;29;20033;-77
2022/05/14 10:41:43;;;;;;;19.23;8.35;;;;;;;21.01;48.38;102123.22;4788483;30;20050;-76
2022/05/14 10:44:35;;;;;;;18.27;8.10;;;;;;;21.08;45.94;102127.84;4773280;30;20126;-77
2022/05/14 10:47:07;;;;;;;14.75;5.43;;;;;;;21.01;45.74;102107.47;4788168;30;20459;-77
2022/05/14 10:49:45;;;;;;;16.52;6.75;;;;;;;21.04;44.74;102113.31;4788375;30;20035;-76
2022/05/14 10:52:15;;;;;;;18.90;6.38;;;;;;;21.25;45.51;102139.50;4787829;29;20043;-77
2022/05/14 10:54:43;;;;;;;15.43;7.53;;;;;;;21.14;45.67;102144.88;4788001;30;20039;-77
2022/05/14 10:57:14;;;;;;;19.77;8.50;;;;;;;21.21;46.93;102143.34;4788072;30;20172;-77
2022/05/14 10:59:41;;;;;;;;;;;;;;;21.43;46.59;102148.44;4788347;30;20050;-77
2022/05/14 11:02:33;;;;;;;16.60;7.80;;;;;;;21.82;45.86;102143.19;4787708;29;19925;-76
2022/05/14 11:04:59;;;;;;;16.23;6.45;;;;;;;22.16;43.11;102137.56;4780265;30;20217;-76
2022/05/14 11:07:31;;;;;;;15.35;6.25;;;;;;;22.47;43.56;102141.66;4787817;30;20034;-76
2022/05/14 11:10:29;;;;;;;13.35;6.18;;;;;;;22.64;41.78;102126.94;4787906;30;20035;-75
2022/05/14 11:12:54;;;;;;;16.23;6.53;;;;;;;22.76;41.19;102125.75;4777180;30;20050;-74
2022/05/14 11:15:24;;;;;;;16.83;6.57;;;;;;;22.89;41.05;102125.44;4787522;29;20042;-73
2022/05/14 11:18:11;;;;;;;15.73;6.72;;;;;;;23.00;42.75;102134.97;4798602;29;20395;-73
2022/05/14 11:20:39;;;;;;;16.73;7.20;;;;;;;23.07;41.61;102130.78;4844347;29;20034;-74
2022/05/14 11:23:13;;;;;;;21.23;8.57;;;;;;;22.87;40.88;102122.16;4844053;29;20052;-74
2022/05/14 11:25:38;;;;;;;17.90;7.32;;;;;;;22.87;42.55;102133.50;4844002;29;20122;-74
2022/05/14 11:28:16;;;;;;;20.15;7.68;;;;;;;22.91;40.97;102131.44;4827076;29;20582;-75
2022/05/14 11:30:49;;;;;;;17.02;7.20;;;;;;;22.73;41.13;102138.41;4843893;29;20041;-74
2022/05/14 11:33:26;;;;;;;16.52;6.63;;;;;;;22.56;41.17;102142.59;4826631;29;20038;-76
2022/05/14 11:35:54;;;;;;;15.77;6.28;;;;;;;22.67;40.49;102142.44;4827219;29;20081;-74
2022/05/14 11:38:29;;;;;;;15.77;6.88;;;;;;;22.59;41.95;102145.75;4843954;29;20037;-75
2022/05/14 11:41:01;;;;;;;15.00;6.13;;;;;;;22.53;39.97;102142.91;4843830;29;20375;-75
2022/05/14 11:43:30;;;;;;;22.00;6.45;;;;;;;22.53;40.90;102148.16;4827189;29;20064;-78
2022/05/14 11:46:36;;;;;;;14.45;7.25;;;;;;;22.61;41.07;102143.84;4843710;29;20022;-78
2022/05/14 11:49:24;;;;;;;12.73;5.45;;;;;;;22.91;40.43;102131.44;4840136;29;20491;-78
2022/05/14 11:52:10;;;;;;;12.15;4.55;;;;;;;23.28;36.37;102136.63;4843669;29;20036;-75
2022/05/14 11:55:11;;;;;;;12.13;4.57;;;;;;;23.28;36.22;102138.44;4843683;29;20112;-76
2022/05/14 11:57:40;;;;;;;16.00;6.32;;;;;;;23.23;38.83;102128.34;4843512;29;20454;-76
2022/05/14 12:00:26;;;;;;;12.48;6.18;;;;;;;23.33;39.12;102136.19;4843442;29;20449;-78
2022/05/14 12:03:18;;;;;;;14.77;5.68;;;;;;;23.54;39.65;102135.91;4843337;29;20045;-77
2022/05/14 12:05:55;;;;;;;18.33;6.88;;;;;;;23.32;39.96;102135.38;4843406;29;20058;-77
2022/05/14 12:08:52;;;;;;;17.73;7.03;;;;;;;23.20;40.39;102133.88;4843339;29;20040;-77